createdAt,value
2023-02-15T00:00:20.310Z,4.40
2023-02-15T00:02:47.174Z,4.30
2023-02-15T00:05:13.965Z,4.20
2023-02-15T00:07:40.679Z,4.20
2023-02-15T00:10:08.460Z,4.20
2023-02-15T00:12:35.154Z,4.10
2023-02-15T00:15:01.814Z,4.00
2023-02-15T00:17:29.831Z,4.00
2023-02-15T00:19:56.549Z,4.00
2023-02-15T00:22:23.213Z,3.90
2023-02-15T00:24:49.950Z,3.90
2023-02-15T00:27:16.633Z,3.90
2023-02-15T00:29:43.406Z,3.80
2023-02-15T00:32:10.405Z,3.80
2023-02-15T00:34:37.095Z,3.80
2023-02-15T00:37:03.734Z,3.70
2023-02-15T00:39:30.451Z,3.80
2023-02-15T00:41:57.128Z,3.70
2023-02-15T00:44:23.892Z,3.70
2023-02-15T00:46:50.654Z,3.70
2023-02-15T00:49:17.316Z,3.60
2023-02-15T00:51:44.028Z,3.50
2023-02-15T00:54:10.721Z,3.50
2023-02-15T00:56:37.403Z,3.50
2023-02-15T00:59:04.167Z,3.50
2023-02-15T01:01:31.024Z,3.40
2023-02-15T01:03:57.868Z,3.40
2023-02-15T01:06:24.585Z,3.40
2023-02-15T01:08:51.268Z,3.40
2023-02-15T01:11:21.962Z,3.40
2023-02-15T01:13:59.240Z,3.30
2023-02-15T01:16:28.375Z,3.30
2023-02-15T01:18:55.182Z,3.30
2023-02-15T01:21:24.259Z,3.30
2023-02-15T01:23:50.987Z,3.30
2023-02-15T01:26:18.007Z,3.30
2023-02-15T01:28:45.594Z,3.30
2023-02-15T01:31:15.028Z,3.30
2023-02-15T01:33:42.624Z,3.30
2023-02-15T01:36:09.543Z,3.30
2023-02-15T01:38:36.993Z,3.20
2023-02-15T01:41:03.778Z,3.20
2023-02-15T01:43:44.123Z,3.20
2023-02-15T01:46:13.798Z,3.20
2023-02-15T01:48:48.110Z,3.20
2023-02-15T01:51:21.569Z,3.10
2023-02-15T01:53:54.519Z,3.10
2023-02-15T01:56:25.956Z,3.10
2023-02-15T01:58:55.589Z,3.10
2023-02-15T02:01:23.282Z,3.10
2023-02-15T02:04:14.411Z,3.00
2023-02-15T02:06:41.273Z,3.00
2023-02-15T02:09:09.027Z,3.00
2023-02-15T02:11:36.145Z,3.00
2023-02-15T02:14:03.060Z,2.90
2023-02-15T02:16:34.019Z,2.90
2023-02-15T02:19:12.833Z,2.90
2023-02-15T02:22:00.715Z,2.80
2023-02-15T02:24:55.476Z,2.80
2023-02-15T02:28:06.511Z,2.80
2023-02-15T02:30:57.969Z,2.80
2023-02-15T02:33:30.860Z,2.70
2023-02-15T02:36:19.512Z,2.70
2023-02-15T02:38:46.137Z,2.70
2023-02-15T02:41:46.373Z,2.60
2023-02-15T02:44:18.339Z,2.60
2023-02-15T02:47:16.311Z,2.60
2023-02-15T02:49:44.490Z,2.60
2023-02-15T02:52:35.678Z,2.60
2023-02-15T02:55:06.863Z,2.50
2023-02-15T02:57:35.949Z,2.50
2023-02-15T03:00:06.452Z,2.50
2023-02-15T03:02:38.383Z,2.50
2023-02-15T03:05:09.739Z,2.40
2023-02-15T03:07:37.599Z,2.50
2023-02-15T03:10:06.945Z,2.50
2023-02-15T03:12:38.312Z,2.40
2023-02-15T03:15:10.179Z,2.30
2023-02-15T03:17:40.889Z,2.30
2023-02-15T03:20:37.321Z,2.30
2023-02-15T03:23:11.792Z,2.30
2023-02-15T03:25:42.579Z,2.20
2023-02-15T03:28:14.204Z,2.20
2023-02-15T03:30:45.962Z,2.20
2023-02-15T03:33:15.175Z,2.20
2023-02-15T03:35:55.627Z,2.20
2023-02-15T03:38:30.623Z,2.20
2023-02-15T03:41:00.396Z,2.10
2023-02-15T03:43:40.493Z,2.10
2023-02-15T03:46:16.352Z,2.10
2023-02-15T03:48:54.095Z,2.10
2023-02-15T03:51:29.036Z,2.00
2023-02-15T03:53:57.571Z,1.90
2023-02-15T03:56:24.869Z,1.90
2023-02-15T03:58:51.646Z,1.90
2023-02-15T04:01:31.352Z,1.80
2023-02-15T04:04:08.606Z,1.70
2023-02-15T04:06:35.291Z,1.60
2023-02-15T04:09:01.970Z,1.50
2023-02-15T04:11:28.640Z,1.50
2023-02-15T04:13:55.331Z,1.40
2023-02-15T04:16:22.060Z,1.40
2023-02-15T04:18:48.907Z,1.40
2023-02-15T04:21:15.790Z,1.30
2023-02-15T04:23:42.446Z,1.30
2023-02-15T04:26:09.098Z,1.30
2023-02-15T04:28:35.798Z,1.40
2023-02-15T04:31:02.502Z,1.30
2023-02-15T04:33:29.203Z,1.30
2023-02-15T04:35:55.887Z,1.30
2023-02-15T04:38:22.831Z,1.30
2023-02-15T04:40:53.247Z,1.30
2023-02-15T04:43:20.359Z,1.30
2023-02-15T04:45:50.911Z,1.20
2023-02-15T04:48:18.766Z,1.20
2023-02-15T04:50:45.926Z,1.10
2023-02-15T04:53:12.785Z,1.10
2023-02-15T04:55:39.513Z,1.10
2023-02-15T04:58:06.247Z,1.10
2023-02-15T05:00:32.962Z,1.10
2023-02-15T05:02:59.718Z,1.00
2023-02-15T05:05:26.595Z,1.00
2023-02-15T05:07:53.463Z,0.90
2023-02-15T05:10:20.404Z,0.90
2023-02-15T05:12:47.129Z,0.90
2023-02-15T05:15:13.905Z,0.90
2023-02-15T05:17:40.777Z,0.80
2023-02-15T05:20:07.948Z,0.80
2023-02-15T05:22:34.716Z,0.80
2023-02-15T05:25:01.421Z,0.80
2023-02-15T05:27:28.194Z,0.80
2023-02-15T05:29:54.896Z,0.80
2023-02-15T05:32:21.771Z,0.80
2023-02-15T05:34:48.513Z,0.80
2023-02-15T05:37:15.217Z,0.90
2023-02-15T05:39:41.884Z,0.90
2023-02-15T05:42:08.600Z,0.90
2023-02-15T05:44:35.278Z,0.90
2023-02-15T05:47:02.330Z,1.00
2023-02-15T05:49:29.146Z,1.00
2023-02-15T05:51:55.822Z,1.00
2023-02-15T05:54:22.480Z,1.00
2023-02-15T05:56:49.165Z,1.00
2023-02-15T05:59:15.862Z,1.10
2023-02-15T06:01:42.519Z,1.10
2023-02-15T06:04:09.241Z,1.00
2023-02-15T06:06:35.939Z,1.10
2023-02-15T06:09:02.889Z,1.00
2023-02-15T06:11:29.629Z,1.00
2023-02-15T06:13:56.321Z,1.00
2023-02-15T06:16:23.348Z,1.00
2023-02-15T06:18:51.347Z,1.00
2023-02-15T06:21:19.039Z,1.00
2023-02-15T06:23:45.756Z,1.00
2023-02-15T06:26:12.538Z,1.00
2023-02-15T06:28:39.218Z,1.00
2023-02-15T06:31:06.048Z,1.00
2023-02-15T06:33:32.761Z,1.00
2023-02-15T06:35:59.689Z,1.00
2023-02-15T06:38:26.524Z,1.00
2023-02-15T06:40:53.190Z,1.00
2023-02-15T06:43:19.860Z,0.90
2023-02-15T06:45:46.547Z,0.90
2023-02-15T06:48:13.300Z,0.90
2023-02-15T06:50:40.041Z,0.90
2023-02-15T06:53:06.905Z,0.90
2023-02-15T06:55:33.644Z,0.90
2023-02-15T06:58:00.351Z,0.80
2023-02-15T07:00:27.246Z,0.80
2023-02-15T07:02:59.067Z,0.80
2023-02-15T07:05:27.100Z,0.90
2023-02-15T07:07:54.036Z,0.90
2023-02-15T07:10:20.790Z,1.00
2023-02-15T07:12:47.646Z,1.00
2023-02-15T07:15:17.080Z,0.90
2023-02-15T07:17:45.022Z,1.00
2023-02-15T07:20:17.413Z,1.00
2023-02-15T07:22:44.541Z,1.10
2023-02-15T07:25:12.567Z,1.10
2023-02-15T07:27:40.211Z,1.20
2023-02-15T07:30:08.968Z,1.20
2023-02-15T07:32:35.852Z,1.20
2023-02-15T07:35:02.546Z,1.10
2023-02-15T07:37:29.593Z,1.20
2023-02-15T07:39:56.386Z,1.20
2023-02-15T07:42:23.209Z,1.20
2023-02-15T07:44:50.156Z,1.20
2023-02-15T07:47:16.969Z,1.30
2023-02-15T07:49:43.711Z,1.20
2023-02-15T07:52:10.415Z,1.30
2023-02-15T07:54:37.139Z,1.30
2023-02-15T07:57:03.963Z,1.40
2023-02-15T07:59:30.664Z,1.40
2023-02-15T08:01:57.610Z,1.30
2023-02-15T08:04:24.900Z,1.30
2023-02-15T08:06:54.275Z,1.40
2023-02-15T08:09:21.583Z,1.40
2023-02-15T08:11:48.742Z,1.50
2023-02-15T08:14:24.519Z,1.40
2023-02-15T08:16:53.184Z,1.50
2023-02-15T08:19:21.138Z,1.40
2023-02-15T08:21:50.319Z,1.40
2023-02-15T08:24:19.691Z,1.40
2023-02-15T08:26:46.774Z,1.40
2023-02-15T08:29:19.355Z,1.50
2023-02-15T08:31:46.907Z,1.50
2023-02-15T08:34:16.888Z,1.50
2023-02-15T08:36:44.296Z,1.50
2023-02-15T08:39:11.361Z,1.50
2023-02-15T08:41:39.334Z,1.70
2023-02-15T08:44:08.365Z,1.80
2023-02-15T08:46:37.636Z,1.80
2023-02-15T08:49:04.836Z,1.90
2023-02-15T08:51:34.771Z,1.90
2023-02-15T08:54:04.043Z,2.00
2023-02-15T08:56:34.817Z,2.00
2023-02-15T08:59:02.650Z,2.00
2023-02-15T09:01:32.070Z,2.10
2023-02-15T09:04:07.095Z,2.20
2023-02-15T09:06:34.117Z,2.30
2023-02-15T09:09:00.810Z,2.30
2023-02-15T09:11:29.791Z,2.40
2023-02-15T09:14:08.400Z,2.40
2023-02-15T09:16:37.373Z,2.50
2023-02-15T09:19:06.164Z,2.50
2023-02-15T09:21:37.711Z,2.50
2023-02-15T09:24:07.633Z,2.60
2023-02-15T09:26:37.473Z,2.70
2023-02-15T09:29:04.946Z,2.80
2023-02-15T09:31:35.161Z,2.90
2023-02-15T09:34:02.102Z,3.00
2023-02-15T09:36:35.166Z,3.00
2023-02-15T09:39:13.162Z,3.10
2023-02-15T09:42:17.487Z,3.10
2023-02-15T09:45:03.026Z,3.10
2023-02-15T09:47:32.522Z,3.10
2023-02-15T09:50:36.380Z,3.20
2023-02-15T09:53:30.495Z,3.30
2023-02-15T09:56:21.139Z,3.40
2023-02-15T09:59:37.238Z,3.40
2023-02-15T10:02:16.942Z,3.40
2023-02-15T10:05:14.803Z,3.40
2023-02-15T10:07:57.309Z,3.30
2023-02-15T10:10:50.290Z,3.40
2023-02-15T10:13:44.699Z,3.50
2023-02-15T10:16:40.685Z,3.60
2023-02-15T10:19:12.952Z,3.80
2023-02-15T10:21:51.926Z,3.70
2023-02-15T10:24:55.414Z,3.80
2023-02-15T10:27:22.621Z,3.90
2023-02-15T10:29:59.957Z,3.90
2023-02-15T10:32:28.518Z,3.90
2023-02-15T10:35:35.716Z,3.90
2023-02-15T10:38:02.331Z,3.90
2023-02-15T10:40:43.923Z,3.90
2023-02-15T10:43:44.476Z,3.90
2023-02-15T10:46:33.369Z,4.00
2023-02-15T10:49:23.159Z,4.00
2023-02-15T10:52:27.354Z,4.00
2023-02-15T10:55:21.782Z,4.00
2023-02-15T10:58:22.595Z,4.00
2023-02-15T11:01:21.568Z,4.00
2023-02-15T11:03:57.221Z,4.00
2023-02-15T11:06:24.057Z,4.00
2023-02-15T11:09:02.217Z,4.00
2023-02-15T11:11:35.778Z,3.90
2023-02-15T11:14:11.059Z,3.90
2023-02-15T11:16:40.901Z,3.90
2023-02-15T11:19:15.077Z,3.90
2023-02-15T11:21:46.581Z,3.90
2023-02-15T11:24:16.702Z,3.90
2023-02-15T11:27:01.046Z,3.80
2023-02-15T11:29:30.751Z,3.90
2023-02-15T11:32:29.394Z,3.90
2023-02-15T11:35:10.921Z,4.00
2023-02-15T11:38:21.128Z,3.90
2023-02-15T11:40:56.925Z,3.90
2023-02-15T11:43:47.346Z,3.90
2023-02-15T11:46:14.192Z,4.00
2023-02-15T11:48:41.452Z,4.00
2023-02-15T11:51:13.262Z,4.10
2023-02-15T11:53:40.686Z,4.20
2023-02-15T11:56:15.270Z,4.20
2023-02-15T11:58:48.896Z,4.20
2023-02-15T12:01:32.981Z,4.30
2023-02-15T12:04:46.448Z,4.30
2023-02-15T12:07:33.144Z,4.40
2023-02-15T12:10:20.095Z,4.50
2023-02-15T12:12:46.958Z,4.60
2023-02-15T12:15:14.853Z,4.70
2023-02-15T12:17:49.991Z,4.70
2023-02-15T12:20:16.657Z,4.80
2023-02-15T12:22:59.444Z,4.90
2023-02-15T12:25:43.150Z,5.00
2023-02-15T12:28:27.915Z,5.10
2023-02-15T12:30:56.298Z,5.20
2023-02-15T12:33:35.140Z,5.30
2023-02-15T12:36:10.346Z,5.50
2023-02-15T12:38:37.140Z,5.60
2023-02-15T12:41:06.827Z,5.80
2023-02-15T12:43:38.321Z,5.90
2023-02-15T12:46:28.166Z,6.00
2023-02-15T12:49:08.707Z,6.20
2023-02-15T12:51:59.914Z,6.40
2023-02-15T12:54:31.140Z,6.50
2023-02-15T12:56:58.902Z,6.70
2023-02-15T12:59:26.342Z,6.80
2023-02-15T13:01:54.109Z,7.00
2023-02-15T13:04:30.037Z,7.20
2023-02-15T13:07:00.543Z,7.40
2023-02-15T13:09:33.545Z,7.50
2023-02-15T13:12:28.421Z,7.80
2023-02-15T13:14:56.681Z,8.00
2023-02-15T13:17:34.486Z,8.20
2023-02-15T13:20:28.689Z,8.30
2023-02-15T13:23:00.574Z,8.40
2023-02-15T13:25:31.950Z,8.50
2023-02-15T13:28:03.337Z,8.60
2023-02-15T13:30:42.989Z,8.80
2023-02-15T13:33:20.626Z,8.90
2023-02-15T13:35:58.852Z,8.90
2023-02-15T13:38:34.680Z,9.00
2023-02-15T13:41:10.351Z,9.10
2023-02-15T13:44:00.432Z,9.30
2023-02-15T13:46:32.966Z,9.30
2023-02-15T13:49:29.251Z,9.50
2023-02-15T13:52:23.934Z,9.60
2023-02-15T13:55:32.000Z,9.70
2023-02-15T13:58:15.352Z,9.90
2023-02-15T14:01:19.938Z,10.10
2023-02-15T14:03:52.867Z,10.30
2023-02-15T14:06:49.136Z,10.40
2023-02-15T14:09:38.414Z,10.30
2023-02-15T14:12:32.764Z,10.20
2023-02-15T14:15:11.731Z,10.00
2023-02-15T14:17:56.214Z,10.10
2023-02-15T14:20:44.809Z,10.20
2023-02-15T14:23:25.972Z,10.30
2023-02-15T14:26:00.388Z,10.40
2023-02-15T14:28:52.161Z,10.30
2023-02-15T14:31:22.197Z,10.40
2023-02-15T14:33:55.918Z,10.50
2023-02-15T14:36:25.610Z,10.50
2023-02-15T14:39:09.269Z,10.70
2023-02-15T14:41:48.809Z,10.70
2023-02-15T14:44:56.773Z,10.80
2023-02-15T14:47:29.990Z,10.80
2023-02-15T14:49:57.047Z,10.80
2023-02-15T14:52:23.898Z,10.80
2023-02-15T14:54:50.635Z,10.80
2023-02-15T14:57:17.288Z,10.70
2023-02-15T14:59:57.232Z,10.70
2023-02-15T15:02:50.577Z,10.70
2023-02-15T15:05:33.274Z,10.70
2023-02-15T15:08:02.222Z,10.50
2023-02-15T15:10:38.959Z,10.50
2023-02-15T15:13:32.884Z,10.40
2023-02-15T15:16:28.576Z,10.40
2023-02-15T15:18:56.040Z,10.20
2023-02-15T15:21:47.157Z,10.10
2023-02-15T15:24:41.392Z,10.00
2023-02-15T15:27:43.181Z,10.00
2023-02-15T15:30:16.137Z,10.00
2023-02-15T15:33:12.467Z,10.00
2023-02-15T15:35:59.805Z,10.00
2023-02-15T15:39:03.716Z,9.80
2023-02-15T15:41:49.522Z,9.70
2023-02-15T15:44:46.741Z,9.50
2023-02-15T15:48:01.946Z,9.40
2023-02-15T15:50:33.679Z,9.20
2023-02-15T15:53:02.795Z,9.10
2023-02-15T15:55:33.061Z,9.00
2023-02-15T15:58:06.803Z,9.00
2023-02-15T16:00:50.995Z,8.90
2023-02-15T16:03:23.997Z,8.70
2023-02-15T16:05:51.564Z,8.70
2023-02-15T16:08:37.006Z,8.60
2023-02-15T16:11:24.884Z,8.50
2023-02-15T16:13:52.743Z,8.40
2023-02-15T16:16:25.371Z,8.30
2023-02-15T16:18:53.025Z,8.30
2023-02-15T16:21:24.247Z,8.20
2023-02-15T16:23:54.456Z,8.10
2023-02-15T16:26:42.407Z,8.10
2023-02-15T16:29:27.127Z,8.00
2023-02-15T16:32:05.475Z,7.90
2023-02-15T16:34:32.502Z,7.80
2023-02-15T16:37:16.146Z,7.80
2023-02-15T16:39:45.063Z,7.70
2023-02-15T16:42:14.393Z,7.60
2023-02-15T16:44:41.651Z,7.60
2023-02-15T16:47:26.249Z,7.50
2023-02-15T16:49:55.052Z,7.50
2023-02-15T16:52:25.510Z,7.40
2023-02-15T16:54:57.141Z,7.40
2023-02-15T16:57:28.012Z,7.40
2023-02-15T16:59:58.336Z,7.30
2023-02-15T17:02:49.722Z,7.30
2023-02-15T17:05:18.400Z,7.20
2023-02-15T17:08:03.326Z,7.10
2023-02-15T17:10:32.013Z,7.10
2023-02-15T17:13:04.400Z,7.10
2023-02-15T17:15:32.785Z,7.00
2023-02-15T17:18:20.265Z,7.00
2023-02-15T17:20:49.271Z,6.90
2023-02-15T17:23:34.263Z,6.90
2023-02-15T17:26:11.383Z,6.90
2023-02-15T17:28:38.305Z,6.90
2023-02-15T17:31:08.298Z,6.80
2023-02-15T17:33:35.180Z,6.80
2023-02-15T17:36:16.886Z,6.70
2023-02-15T17:38:58.843Z,6.70
2023-02-15T17:41:26.302Z,6.70
2023-02-15T17:43:52.957Z,6.60
2023-02-15T17:46:20.340Z,6.60
2023-02-15T17:48:48.694Z,6.50
2023-02-15T17:51:16.750Z,6.50
2023-02-15T17:53:44.209Z,6.50
2023-02-15T17:56:10.927Z,6.40
2023-02-15T17:58:39.371Z,6.40
2023-02-15T18:01:17.708Z,6.40
2023-02-15T18:03:50.652Z,6.30
2023-02-15T18:06:17.388Z,6.30
2023-02-15T18:08:44.499Z,6.30
2023-02-15T18:11:11.509Z,6.20
2023-02-15T18:13:38.263Z,6.20
2023-02-15T18:16:05.085Z,6.20
2023-02-15T18:18:31.801Z,6.20
2023-02-15T18:20:58.484Z,6.20
2023-02-15T18:23:25.140Z,6.10
2023-02-15T18:25:51.791Z,6.10
2023-02-15T18:28:18.435Z,6.10
2023-02-15T18:30:45.196Z,6.10
2023-02-15T18:33:45.424Z,6.00
2023-02-15T18:36:18.326Z,6.00
2023-02-15T18:38:45.019Z,6.00
2023-02-15T18:41:18.158Z,6.00
2023-02-15T18:43:45.692Z,6.00
2023-02-15T18:46:12.728Z,5.90
2023-02-15T18:48:39.436Z,5.90
2023-02-15T18:51:14.182Z,5.90
2023-02-15T18:53:41.122Z,5.90
2023-02-15T18:56:16.169Z,5.90
2023-02-15T18:58:42.999Z,5.90
2023-02-15T19:01:18.011Z,5.80
2023-02-15T19:03:49.504Z,5.80
2023-02-15T19:06:20.104Z,5.80
2023-02-15T19:08:49.040Z,5.80
2023-02-15T19:11:24.072Z,5.80
2023-02-15T19:13:54.288Z,5.70
2023-02-15T19:16:31.346Z,5.70
2023-02-15T19:18:58.162Z,5.70
2023-02-15T19:21:26.874Z,5.70
2023-02-15T19:24:06.996Z,5.70
2023-02-15T19:26:45.262Z,5.70
2023-02-15T19:29:15.798Z,5.70
2023-02-15T19:31:43.222Z,5.60
2023-02-15T19:34:15.252Z,5.60
2023-02-15T19:36:43.875Z,5.60
2023-02-15T19:39:21.458Z,5.60
2023-02-15T19:41:48.226Z,5.50
2023-02-15T19:44:14.923Z,5.50
2023-02-15T19:46:41.671Z,5.50
2023-02-15T19:49:09.763Z,5.50
2023-02-15T19:51:37.001Z,5.40
2023-02-15T19:54:19.690Z,5.40
2023-02-15T19:56:46.389Z,5.40
2023-02-15T19:59:27.030Z,5.40
2023-02-15T20:01:54.377Z,5.40
2023-02-15T20:04:21.219Z,5.40
2023-02-15T20:06:50.248Z,5.40
2023-02-15T20:09:30.733Z,5.30
2023-02-15T20:11:57.454Z,5.30
2023-02-15T20:14:24.330Z,5.30
2023-02-15T20:16:51.222Z,5.30
2023-02-15T20:19:18.017Z,5.20
2023-02-15T20:21:46.518Z,5.20
2023-02-15T20:24:19.864Z,5.20
2023-02-15T20:26:46.738Z,5.20
2023-02-15T20:29:14.801Z,5.20
2023-02-15T20:31:42.786Z,5.10
2023-02-15T20:34:09.839Z,5.10
2023-02-15T20:36:37.410Z,5.10
2023-02-15T20:39:12.164Z,5.10
2023-02-15T20:41:38.837Z,5.10
2023-02-15T20:44:30.852Z,5.00
2023-02-15T20:46:58.994Z,5.00
2023-02-15T20:49:27.287Z,5.00
2023-02-15T20:51:55.989Z,5.00
2023-02-15T20:54:30.533Z,4.90
2023-02-15T20:56:57.248Z,4.90
2023-02-15T20:59:29.036Z,4.90
2023-02-15T21:01:59.457Z,4.90
2023-02-15T21:04:30.479Z,4.80
2023-02-15T21:06:57.353Z,4.70
2023-02-15T21:09:24.025Z,4.70
2023-02-15T21:11:52.900Z,4.70
2023-02-15T21:14:21.750Z,4.70
2023-02-15T21:16:49.532Z,4.70
2023-02-15T21:19:20.138Z,4.70
2023-02-15T21:21:48.372Z,4.70
2023-02-15T21:24:25.517Z,4.60
2023-02-15T21:26:52.828Z,4.60
2023-02-15T21:29:24.846Z,4.60
2023-02-15T21:31:52.362Z,4.60
2023-02-15T21:34:19.550Z,4.50
2023-02-15T21:36:48.384Z,4.50
2023-02-15T21:39:23.656Z,4.50
2023-02-15T21:41:52.327Z,4.50
2023-02-15T21:44:21.928Z,4.40
2023-02-15T21:46:48.735Z,4.40
2023-02-15T21:49:15.448Z,4.40
2023-02-15T21:51:42.200Z,4.40
2023-02-15T21:54:12.521Z,4.40
2023-02-15T21:56:39.591Z,4.30
2023-02-15T21:59:14.189Z,4.40
2023-02-15T22:01:44.551Z,4.40
2023-02-15T22:04:22.453Z,4.30
2023-02-15T22:06:49.234Z,4.30
2023-02-15T22:09:25.018Z,4.30
2023-02-15T22:11:52.525Z,4.30
2023-02-15T22:14:41.503Z,4.40
2023-02-15T22:17:23.167Z,4.30
2023-02-15T22:19:50.504Z,4.30
2023-02-15T22:22:17.681Z,4.40
2023-02-15T22:24:45.242Z,4.30
2023-02-15T22:27:22.084Z,4.30
2023-02-15T22:29:49.948Z,4.30
2023-02-15T22:32:24.397Z,4.30
2023-02-15T22:34:52.956Z,4.30
2023-02-15T22:37:20.631Z,4.30
2023-02-15T22:39:47.359Z,4.30
2023-02-15T22:42:24.353Z,4.30
2023-02-15T22:44:56.782Z,4.20
2023-02-15T22:47:26.537Z,4.20
2023-02-15T22:49:53.340Z,4.20
2023-02-15T22:52:20.971Z,4.20
2023-02-15T22:54:47.687Z,4.20
2023-02-15T22:57:29.167Z,4.20
2023-02-15T22:59:56.534Z,4.20
2023-02-15T23:02:23.481Z,4.10
2023-02-15T23:04:53.175Z,4.10
2023-02-15T23:07:20.148Z,4.10
2023-02-15T23:09:46.810Z,4.10
2023-02-15T23:12:28.493Z,4.10
2023-02-15T23:14:56.797Z,4.10
2023-02-15T23:17:23.470Z,4.10
2023-02-15T23:19:50.152Z,4.10
2023-02-15T23:22:18.163Z,4.00
2023-02-15T23:24:50.053Z,4.00
2023-02-15T23:27:18.121Z,4.00
2023-02-15T23:29:45.133Z,4.00
2023-02-15T23:32:15.612Z,3.90
2023-02-15T23:34:43.362Z,4.00
2023-02-15T23:37:14.305Z,4.00
2023-02-15T23:39:41.070Z,3.90
2023-02-15T23:42:14.686Z,3.90
2023-02-15T23:44:43.556Z,3.90
2023-02-15T23:47:32.333Z,3.90
2023-02-15T23:49:58.989Z,3.80
2023-02-15T23:52:25.692Z,3.80
2023-02-15T23:54:52.394Z,3.80
2023-02-15T23:57:19.079Z,3.80
2023-02-15T23:59:45.763Z,3.70
